Time;durP1;ratioP1;P1;durP2;ratioP2;P2;SDS_P1;SDS_P2;PMS_P1;PMS_P2;Temp;Humidity;BMP_temperature;BMP_pressure;BME280_temperature;BME280_humidity;BME280_pressure;Samples;Min_cycle;Max_cycle;Signal;HPM_P1;HPM_P2
2023/02/18 00:02:05;;;;;;;7.25;1.58;;;7.60;99.90;;;;;;5015225;28;20071;-77
2023/02/18 00:04:31;;;;;;;10.43;1.92;;;7.60;99.90;;;;;;5033299;28;20123;-76
2023/02/18 00:06:56;;;;;;;8.70;2.60;;;7.60;99.90;;;;;;5029449;28;20056;-76
2023/02/18 00:09:24;;;;;;;8.98;2.13;;;7.60;99.90;;;;;;5012637;28;20121;-77
2023/02/18 00:11:49;;;;;;;10.82;1.67;;;7.50;99.90;;;;;;5029551;28;20462;-77
2023/02/18 00:14:15;;;;;;;13.63;2.45;;;7.50;99.90;;;;;;5008519;28;20061;-76
2023/02/18 00:16:41;;;;;;;11.35;2.03;;;7.50;99.90;;;;;;5005445;28;20049;-77
2023/02/18 00:19:10;;;;;;;9.50;2.33;;;7.50;99.90;;;;;;5017684;28;20085;-77
2023/02/18 00:21:35;;;;;;;11.68;1.70;;;7.50;99.90;;;;;;5011344;28;20045;-76
2023/02/18 00:24:02;;;;;;;10.60;2.40;;;7.50;99.90;;;;;;4993256;28;20095;-76
2023/02/18 00:26:28;;;;;;;10.68;1.80;;;7.50;99.90;;;;;;5029596;28;20058;-76
2023/02/18 00:28:54;;;;;;;10.50;1.52;;;7.40;99.90;;;;;;5011720;28;20471;-77
2023/02/18 00:31:25;;;;;;;9.68;1.40;;;7.50;99.90;;;;;;5015086;28;20056;-77
2023/02/18 00:33:51;;;;;;;10.95;1.88;;;7.40;99.90;;;;;;5011468;28;20370;-76
2023/02/18 00:36:17;;;;;;;9.40;1.80;;;7.40;99.90;;;;;;5018610;28;20051;-77
2023/02/18 00:38:45;;;;;;;9.52;1.80;;;7.50;99.90;;;;;;5045443;28;20038;-76
2023/02/18 00:41:12;;;;;;;8.82;1.50;;;7.40;99.90;;;;;;4993306;28;20049;-76
2023/02/18 00:43:38;;;;;;;10.75;1.52;;;7.40;99.90;;;;;;4992420;28;20046;-77
2023/02/18 00:46:03;;;;;;;14.35;2.33;;;7.40;99.90;;;;;;5014246;28;20075;-77
2023/02/18 00:48:31;;;;;;;9.30;2.15;;;7.30;99.90;;;;;;5025271;28;20045;-76
2023/02/18 00:50:56;;;;;;;9.27;2.08;;;7.40;99.90;;;;;;5006468;28;20438;-77
2023/02/18 00:53:23;;;;;;;9.00;1.60;;;7.30;99.90;;;;;;5016170;28;20037;-76
2023/02/18 00:55:49;;;;;;;10.80;2.42;;;7.40;99.90;;;;;;5007909;28;20042;-76
2023/02/18 00:58:17;;;;;;;8.93;1.75;;;7.40;99.90;;;;;;5014335;28;20045;-77
2023/02/18 01:00:44;;;;;;;9.93;1.67;;;7.40;99.90;;;;;;5003869;28;20038;-77
2023/02/18 01:03:10;;;;;;;12.35;2.22;;;7.40;99.90;;;;;;5025812;28;20048;-76
2023/02/18 01:05:36;;;;;;;8.32;2.22;;;7.40;99.90;;;;;;5014351;28;20045;-77
2023/02/18 01:08:05;;;;;;;11.05;1.92;;;7.30;99.90;;;;;;5022696;28;20049;-77
2023/02/18 01:10:31;;;;;;;11.70;1.80;;;7.30;99.90;;;;;;5011985;28;20050;-76
2023/02/18 01:12:57;;;;;;;8.48;1.60;;;7.30;99.90;;;;;;5000204;28;20052;-75
2023/02/18 01:15:23;;;;;;;9.10;1.60;;;7.40;99.90;;;;;;5007469;28;20045;-75
2023/02/18 01:17:50;;;;;;;8.20;1.83;;;7.30;99.90;;;;;;5019813;28;20042;-74
2023/02/18 01:20:18;;;;;;;12.88;1.63;;;7.30;99.90;;;;;;5025096;28;20494;-74
2023/02/18 01:22:44;;;;;;;10.43;2.05;;;7.30;99.90;;;;;;5014483;28;20107;-73
2023/02/18 01:25:10;;;;;;;11.65;1.98;;;7.30;99.90;;;;;;5023020;28;20042;-73
2023/02/18 01:27:37;;;;;;;9.45;1.70;;;7.30;99.90;;;;;;5029769;28;20064;-74
2023/02/18 01:30:04;;;;;;;13.57;1.75;;;7.40;99.90;;;;;;5026942;28;20088;-75
2023/02/18 01:32:30;;;;;;;8.73;1.58;;;7.40;99.90;;;;;;5028198;28;20045;-74
2023/02/18 01:34:56;;;;;;;8.43;1.80;;;7.40;99.90;;;;;;5022438;28;20041;-73
2023/02/18 01:37:21;;;;;;;7.43;1.38;;;7.40;99.90;;;;;;5010644;28;20042;-74
2023/02/18 01:39:47;;;;;;;11.63;2.03;;;7.40;99.90;;;;;;5033503;28;20080;-75
2023/02/18 01:42:22;;;;;;;8.70;1.52;;;7.50;99.90;;;;;;5024851;28;20077;-74
2023/02/18 01:44:49;;;;;;;7.75;1.33;;;7.50;99.90;;;;;;5035913;28;20045;-74
2023/02/18 01:47:16;;;;;;;8.48;2.00;;;7.60;99.90;;;;;;4997974;28;20046;-74
2023/02/18 01:49:44;;;;;;;11.65;2.10;;;7.60;99.90;;;;;;4989716;28;20091;-74
2023/02/18 01:52:18;;;;;;;13.15;1.85;;;7.60;99.90;;;;;;5004032;28;20557;-74
2023/02/18 01:54:48;;;;;;;12.95;1.80;;;7.60;99.90;;;;;;5016536;28;20045;-75
2023/02/18 01:57:22;;;;;;;13.63;2.15;;;7.70;99.90;;;;;;4989922;28;20038;-74
2023/02/18 01:59:55;;;;;;;6.18;1.15;;;7.60;99.90;;;;;;5010108;28;20054;-74
2023/02/18 02:02:23;;;;;;;12.98;2.10;;;7.70;99.90;;;;;;5017589;28;20076;-75
2023/02/18 02:04:49;;;;;;;8.43;2.10;;;7.70;99.90;;;;;;5019485;28;20466;-73
2023/02/18 02:07:15;;;;;;;8.10;1.40;;;7.70;99.90;;;;;;5023638;28;20347;-75
2023/02/18 02:09:40;;;;;;;8.88;1.70;;;7.70;99.90;;;;;;5016776;28;20454;-74
2023/02/18 02:12:10;;;;;;;9.85;1.65;;;7.70;99.90;;;;;;5004122;28;20053;-74
2023/02/18 02:15:05;;;;;;;16.83;3.35;;;7.80;99.90;;;;;;5019147;28;20053;-74
2023/02/18 02:17:52;;;;;;;7.10;1.58;;;7.70;99.90;;;;;;5027112;28;20160;-74
2023/02/18 02:20:36;;;;;;;11.13;1.98;;;7.70;99.90;;;;;;5015792;28;20050;-75
2023/02/18 02:23:32;;;;;;;6.97;1.60;;;7.70;99.90;;;;;;5028775;28;20046;-74
2023/02/18 02:26:07;;;;;;;8.88;1.40;;;7.80;99.90;;;;;;4997487;28;20221;-74
2023/02/18 02:29:03;;;;;;;9.15;1.35;;;7.80;99.90;;;;;;5017922;28;20953;-75
2023/02/18 02:32:34;;;;;;;8.65;1.60;;;7.80;99.90;;;;;;5017173;28;20446;-74
2023/02/18 02:35:07;;;;;;;12.05;1.90;;;7.80;99.90;;;;;;4946995;28;20642;-74
2023/02/18 02:37:57;;;;;;;10.65;1.73;;;7.80;99.90;;;;;;4998053;28;20362;-74
2023/02/18 02:40:44;;;;;;;7.97;1.60;;;7.80;99.90;;;;;;5032049;28;20081;-74
2023/02/18 02:44:01;;;;;;;6.55;1.45;;;7.70;99.90;;;;;;5011733;28;21071;-75
2023/02/18 02:46:47;;;;;;;12.32;2.00;;;7.80;99.90;;;;;;5017559;28;20445;-75
2023/02/18 02:49:32;;;;;;;7.20;1.60;;;7.80;99.90;;;;;;5006667;28;20077;-74
2023/02/18 02:52:06;;;;;;;10.57;1.50;;;7.80;99.90;;;;;;5013159;28;20054;-75
2023/02/18 02:54:32;;;;;;;7.43;1.30;;;7.80;99.90;;;;;;5012902;28;20429;-75
2023/02/18 02:57:17;;;;;;;11.65;1.98;;;7.80;99.90;;;;;;4991386;28;20038;-76
2023/02/18 02:59:45;;;;;;;8.98;1.50;;;7.80;99.90;;;;;;5014552;28;20108;-75
2023/02/18 03:02:33;;;;;;;12.45;2.20;;;7.90;99.90;;;;;;5029982;28;20048;-74
2023/02/18 03:05:27;;;;;;;7.32;1.35;;;7.90;99.90;;;;;;5027095;28;20053;-74
2023/02/18 03:07:56;;;;;;;8.73;1.45;;;7.80;99.90;;;;;;5018124;28;20121;-74
2023/02/18 03:10:35;;;;;;;17.35;2.47;;;7.80;99.90;;;;;;5019107;28;20054;-75
2023/02/18 03:13:15;;;;;;;11.70;2.05;;;7.80;99.90;;;;;;5021658;28;20042;-74
2023/02/18 03:15:53;;;;;;;8.32;1.52;;;8.00;99.90;;;;;;5005376;28;20073;-74
2023/02/18 03:18:37;;;;;;;9.80;1.40;;;7.90;99.90;;;;;;4999362;28;20717;-73
2023/02/18 03:21:17;;;;;;;9.27;1.40;;;7.80;99.90;;;;;;5007116;28;20049;-73
2023/02/18 03:23:48;;;;;;;8.15;1.63;;;7.80;99.90;;;;;;4998597;28;20076;-73
2023/02/18 03:26:15;;;;;;;8.73;1.70;;;7.80;99.90;;;;;;5017431;28;20046;-74
2023/02/18 03:28:43;;;;;;;12.40;1.92;;;7.80;99.90;;;;;;5008329;28;20579;-73
2023/02/18 03:31:11;;;;;;;10.45;1.40;;;7.80;99.90;;;;;;5020146;28;20128;-74
2023/02/18 03:33:41;;;;;;;10.23;1.95;;;7.80;99.90;;;;;;5015750;28;20053;-74
2023/02/18 03:36:08;;;;;;;7.20;1.67;;;7.80;99.90;;;;;;5005535;28;20052;-74
2023/02/18 03:38:47;;;;;;;12.07;1.50;;;7.80;99.90;;;;;;5006488;28;20046;-73
2023/02/18 03:41:13;;;;;;;7.53;1.65;;;7.80;99.90;;;;;;4996022;28;20042;-73
2023/02/18 03:43:40;;;;;;;9.93;1.42;;;7.80;99.90;;;;;;5022007;28;20038;-73
2023/02/18 03:46:06;;;;;;;13.27;1.50;;;7.80;99.90;;;;;;5005872;28;20443;-74
2023/02/18 03:48:31;;;;;;;7.57;1.75;;;7.70;99.90;;;;;;5024503;28;20080;-74
2023/02/18 03:51:00;;;;;;;9.77;1.92;;;7.70;99.90;;;;;;4994468;28;20413;-73
2023/02/18 03:53:27;;;;;;;;;;;7.80;99.90;;;;;;5006640;28;20138;-73
2023/02/18 03:55:54;;;;;;;7.90;1.65;;;7.70;99.90;;;;;;5040317;28;19920;-74
2023/02/18 03:58:19;;;;;;;9.27;1.40;;;7.70;99.90;;;;;;5002807;28;20139;-74
2023/02/18 04:00:48;;;;;;;10.35;1.92;;;7.70;99.90;;;;;;5001565;28;20361;-73
2023/02/18 04:03:14;;;;;;;10.50;1.67;;;7.80;99.90;;;;;;4985483;28;20046;-74
2023/02/18 04:05:39;;;;;;;12.68;2.72;;;7.80;99.90;;;;;;5007199;28;20048;-73
2023/02/18 04:08:05;;;;;;;14.88;1.92;;;7.80;99.90;;;;;;4985675;28;20046;-74
2023/02/18 04:10:31;;;;;;;7.00;1.50;;;7.80;99.90;;;;;;4981397;28;20171;-75
2023/02/18 04:12:57;;;;;;;12.77;2.40;;;7.80;99.90;;;;;;5018357;28;20111;-73
2023/02/18 04:15:23;;;;;;;5.68;1.75;;;7.90;99.90;;;;;;5022399;28;20045;-74
2023/02/18 04:17:51;;;;;;;12.02;1.70;;;7.90;99.90;;;;;;5015356;28;20067;-74
2023/02/18 04:20:17;;;;;;;6.40;1.70;;;7.90;99.90;;;;;;5017065;28;20064;-74
2023/02/18 04:22:43;;;;;;;9.20;1.98;;;7.90;99.90;;;;;;5004063;28;20544;-74
2023/02/18 04:25:09;;;;;;;10.25;1.95;;;7.90;99.90;;;;;;5017838;28;20061;-74
2023/02/18 04:27:37;;;;;;;9.48;1.88;;;7.90;99.90;;;;;;5000020;28;20402;-74
2023/02/18 04:30:04;;;;;;;10.40;1.90;;;8.00;99.90;;;;;;5025588;28;20097;-74
2023/02/18 04:32:29;;;;;;;10.05;2.40;;;8.00;99.90;;;;;;5002268;28;20410;-73
2023/02/18 04:34:55;;;;;;;11.00;1.85;;;8.00;99.90;;;;;;5004278;28;20041;-73
2023/02/18 04:37:21;;;;;;;7.50;2.03;;;8.00;99.90;;;;;;5021560;28;20037;-73
2023/02/18 04:39:46;;;;;;;7.35;2.20;;;8.00;99.90;;;;;;5029880;28;20140;-73
2023/02/18 04:42:12;;;;;;;16.83;2.00;;;8.00;99.90;;;;;;5005641;28;20053;-73
2023/02/18 04:44:41;;;;;;;12.18;2.10;;;8.00;99.90;;;;;;5006124;28;20049;-73
2023/02/18 04:47:08;;;;;;;11.35;2.17;;;8.00;99.90;;;;;;4996357;28;20053;-73
2023/02/18 04:49:36;;;;;;;12.52;2.00;;;8.00;99.90;;;;;;5019029;28;20077;-73
2023/02/18 04:52:02;;;;;;;11.90;2.28;;;8.00;99.90;;;;;;5014034;28;20437;-73
2023/02/18 04:54:29;;;;;;;8.30;2.08;;;8.00;99.90;;;;;;5011004;28;20041;-73
2023/02/18 04:56:54;;;;;;;7.25;1.90;;;8.00;99.90;;;;;;5010419;28;20038;-73
2023/02/18 04:59:20;;;;;;;13.05;2.45;;;8.00;99.90;;;;;;4992598;28;20045;-73
2023/02/18 05:01:46;;;;;;;11.60;2.13;;;8.00;99.90;;;;;;5003302;28;20046;-73
2023/02/18 05:04:14;;;;;;;13.38;2.42;;;8.00;99.90;;;;;;5025340;28;20049;-72
2023/02/18 05:06:41;;;;;;;12.23;2.30;;;7.90;99.90;;;;;;5001736;28;20100;-73
2023/02/18 05:09:08;;;;;;;12.32;2.25;;;7.90;99.90;;;;;;5000028;28;20571;-72
2023/02/18 05:11:33;;;;;;;10.65;2.83;;;7.90;99.90;;;;;;5012839;28;20045;-73
2023/02/18 05:14:02;;;;;;;14.45;3.42;;;7.90;99.90;;;;;;4991335;28;20490;-72
2023/02/18 05:16:29;;;;;;;10.55;3.17;;;7.80;99.90;;;;;;5016678;28;20451;-72
2023/02/18 05:18:55;;;;;;;13.27;3.70;;;7.70;99.90;;;;;;5005270;28;20056;-72
2023/02/18 05:21:21;;;;;;;17.08;4.68;;;7.70;99.90;;;;;;5037117;28;20049;-72
2023/02/18 05:23:47;;;;;;;11.57;4.38;;;7.70;99.90;;;;;;5029622;28;20466;-72
2023/02/18 05:26:13;;;;;;;22.48;5.25;;;7.70;99.90;;;;;;5013038;28;20588;-72
2023/02/18 05:28:39;;;;;;;16.02;4.53;;;7.60;99.90;;;;;;5002166;28;20148;-72
2023/02/18 05:31:05;;;;;;;21.38;6.13;;;7.60;99.90;;;;;;5025813;28;20124;-72
2023/02/18 05:33:32;;;;;;;19.23;6.70;;;7.50;99.90;;;;;;5018914;28;20104;-72
2023/02/18 05:35:58;;;;;;;20.17;7.30;;;7.50;99.90;;;;;;5012635;28;20691;-72
2023/02/18 05:38:23;;;;;;;24.73;7.80;;;7.50;99.90;;;;;;5002690;28;20049;-72
2023/02/18 05:40:50;;;;;;;18.73;7.38;;;7.50;99.90;;;;;;5026122;28;20045;-72
2023/02/18 05:43:18;;;;;;;30.77;8.85;;;7.50;99.90;;;;;;5028649;28;20037;-72
2023/02/18 05:45:43;;;;;;;26.30;7.63;;;7.50;99.90;;;;;;5045143;28;20042;-72
2023/02/18 05:48:09;;;;;;;20.00;7.93;;;7.50;99.90;;;;;;5004764;28;20046;-72
2023/02/18 05:50:35;;;;;;;30.42;8.38;;;7.40;99.90;;;;;;5000377;28;20497;-72
2023/02/18 05:53:01;;;;;;;24.98;9.25;;;7.40;99.90;;;;;;5006447;28;20485;-72
2023/02/18 05:55:27;;;;;;;25.27;8.30;;;7.30;99.90;;;;;;4997373;28;20056;-72
2023/02/18 05:57:54;;;;;;;24.25;8.60;;;7.40;99.90;;;;;;4999581;28;20041;-72
2023/02/18 06:00:20;;;;;;;27.85;9.75;;;7.30;99.90;;;;;;5019022;28;20095;-72
2023/02/18 06:02:45;;;;;;;27.15;10.32;;;7.40;99.90;;;;;;5022601;28;20377;-72
2023/02/18 06:05:11;;;;;;;25.00;8.88;;;7.30;99.90;;;;;;5022883;28;20050;-72
2023/02/18 06:07:38;;;;;;;24.33;8.60;;;7.40;99.90;;;;;;5037371;28;20142;-72
2023/02/18 06:10:05;;;;;;;32.20;11.32;;;7.40;99.90;;;;;;5026458;28;20045;-72
2023/02/18 06:12:31;;;;;;;29.38;11.23;;;7.40;99.90;;;;;;5025327;28;20048;-72
2023/02/18 06:14:58;;;;;;;30.15;12.45;;;7.30;99.90;;;;;;5006149;28;20398;-72
2023/02/18 06:17:24;;;;;;;35.90;12.70;;;7.40;99.90;;;;;;5006776;28;20453;-72
2023/02/18 06:19:50;;;;;;;29.88;11.50;;;7.30;99.90;;;;;;5022560;28;20160;-72
2023/02/18 06:22:15;;;;;;;30.85;11.73;;;7.30;99.90;;;;;;5001284;28;20056;-72
2023/02/18 06:24:44;;;;;;;24.65;12.18;;;7.30;99.90;;;;;;5023472;28;20434;-72
2023/02/18 06:27:10;;;;;;;43.83;16.17;;;7.30;99.90;;;;;;5004083;28;20053;-71
2023/02/18 06:29:36;;;;;;;36.78;14.20;;;7.30;99.90;;;;;;5003922;28;20037;-72
2023/02/18 06:32:02;;;;;;;33.72;13.65;;;7.30;99.90;;;;;;5023460;28;20050;-72
2023/02/18 06:34:27;;;;;;;41.20;16.48;;;7.30;99.90;;;;;;5026421;28;20045;-72
2023/02/18 06:36:54;;;;;;;31.02;13.43;;;7.30;99.90;;;;;;5026395;28;20543;-72
2023/02/18 06:39:20;;;;;;;37.38;13.90;;;7.30;99.90;;;;;;4988857;28;20063;-71
2023/02/18 06:41:46;;;;;;;29.48;14.00;;;7.30;99.90;;;;;;5001327;28;20050;-71
2023/02/18 06:44:14;;;;;;;30.88;13.45;;;7.40;99.90;;;;;;5009202;28;20056;-72
2023/02/18 06:46:39;;;;;;;34.63;15.45;;;7.30;99.90;;;;;;5027544;28;20128;-72
2023/02/18 06:49:06;;;;;;;31.52;14.07;;;7.40;99.90;;;;;;4993709;28;20045;-72
2023/02/18 06:51:31;;;;;;;40.60;16.85;;;7.40;99.90;;;;;;5005943;28;20053;-72
2023/02/18 06:53:57;;;;;;;36.78;16.75;;;7.40;99.90;;;;;;5003459;28;20473;-72
2023/02/18 06:56:23;;;;;;;32.80;15.57;;;7.40;99.90;;;;;;5001910;28;20038;-72
2023/02/18 06:58:49;;;;;;;39.63;16.92;;;7.40;99.90;;;;;;5008288;28;20402;-72
2023/02/18 07:01:14;;;;;;;31.30;15.60;;;7.50;99.90;;;;;;5020333;28;20060;-71
2023/02/18 07:03:40;;;;;;;31.73;16.17;;;7.40;99.90;;;;;;4995423;28;20049;-72
2023/02/18 07:06:06;;;;;;;30.48;16.02;;;7.50;99.90;;;;;;5006269;28;20370;-72
2023/02/18 07:08:35;;;;;;;39.47;16.15;;;7.40;99.90;;;;;;5017721;28;20616;-72
2023/02/18 07:11:00;;;;;;;36.28;16.98;;;7.40;99.90;;;;;;4996379;28;20042;-72
2023/02/18 07:13:26;;;;;;;27.02;14.10;;;7.40;99.90;;;;;;5004573;28;20119;-72
2023/02/18 07:15:52;;;;;;;28.75;15.23;;;7.50;99.90;;;;;;5029427;28;20041;-72
2023/02/18 07:18:18;;;;;;;41.03;17.00;;;7.40;99.90;;;;;;5022813;28;20061;-72
2023/02/18 07:20:44;;;;;;;36.70;16.75;;;7.40;99.90;;;;;;4993640;28;20046;-72
2023/02/18 07:23:10;;;;;;;34.85;17.02;;;7.40;99.90;;;;;;5032882;28;20049;-72
2023/02/18 07:25:36;;;;;;;34.25;16.92;;;7.40;99.90;;;;;;5017335;28;20064;-72
2023/02/18 07:28:01;;;;;;;30.90;15.30;;;7.40;99.90;;;;;;5011667;28;20054;-72
2023/02/18 07:30:27;;;;;;;38.28;17.65;;;7.30;99.90;;;;;;5015977;28;20065;-72
2023/02/18 07:32:53;;;;;;;32.38;16.35;;;7.40;99.90;;;;;;5025525;28;20121;-72
2023/02/18 07:35:20;;;;;;;35.95;16.73;;;7.40;99.90;;;;;;4994308;28;20533;-72
2023/02/18 07:37:46;;;;;;;32.50;16.80;;;7.40;99.90;;;;;;5021815;28;20056;-72
2023/02/18 07:40:13;;;;;;;36.03;17.48;;;7.50;99.90;;;;;;4996412;28;20150;-72
2023/02/18 07:42:39;;;;;;;38.80;19.70;;;7.50;99.90;;;;;;5007473;28;20050;-72
2023/02/18 07:45:05;;;;;;;27.80;15.35;;;7.50;99.90;;;;;;5004295;28;20050;-72
2023/02/18 07:47:30;;;;;;;37.17;19.52;;;7.50;99.90;;;;;;5009827;28;20045;-72
2023/02/18 07:49:56;;;;;;;40.72;18.30;;;7.50;99.90;;;;;;5029339;28;20476;-72
2023/02/18 07:52:22;;;;;;;40.45;19.20;;;7.50;99.90;;;;;;5021102;28;20118;-72
2023/02/18 07:54:48;;;;;;;42.65;20.15;;;7.50;99.90;;;;;;5031397;28;20357;-72
2023/02/18 07:57:14;;;;;;;39.95;20.02;;;7.50;99.90;;;;;;5022463;28;20118;-72
2023/02/18 07:59:40;;;;;;;32.88;17.48;;;7.50;99.90;;;;;;5005227;28;20788;-72
2023/02/18 08:02:06;;;;;;;38.70;20.67;;;7.50;99.90;;;;;;5036576;28;20065;-72
2023/02/18 08:04:33;;;;;;;39.95;19.58;;;7.60;99.90;;;;;;5016903;28;20417;-72
2023/02/18 08:06:59;;;;;;;37.60;18.48;;;7.60;99.90;;;;;;4979037;28;20265;-72
2023/02/18 08:09:24;;;;;;;38.00;19.42;;;7.60;99.90;;;;;;5025786;28;20159;-76
2023/02/18 08:11:50;;;;;;;38.60;20.50;;;7.60;99.90;;;;;;5022053;28;20049;-76
2023/02/18 08:14:16;;;;;;;34.25;17.88;;;7.70;99.90;;;;;;4976385;28;20046;-76
2023/02/18 08:16:41;;;;;;;36.30;19.83;;;7.70;99.90;;;;;;5027981;28;20521;-76
2023/02/18 08:19:07;;;;;;;38.85;19.80;;;7.70;99.90;;;;;;5027734;28;20045;-76
2023/02/18 08:21:33;;;;;;;49.33;22.30;;;7.80;99.90;;;;;;5028845;28;20080;-76
2023/02/18 08:23:59;;;;;;;45.85;21.17;;;7.70;99.90;;;;;;5004679;28;20508;-76
2023/02/18 08:26:25;;;;;;;40.22;19.17;;;7.70;99.90;;;;;;5022795;28;20073;-76
2023/02/18 08:28:51;;;;;;;34.67;17.85;;;7.80;99.90;;;;;;4989421;28;20061;-76
2023/02/18 08:31:24;;;;;;;45.65;20.02;;;7.70;99.90;;;;;;5011690;28;20037;-75
2023/02/18 08:33:50;;;;;;;48.95;20.50;;;7.80;99.90;;;;;;5016961;28;20056;-76
2023/02/18 08:36:16;;;;;;;43.42;19.33;;;7.80;99.90;;;;;;5011024;28;20409;-76
2023/02/18 08:38:42;;;;;;;45.33;19.05;;;7.80;99.90;;;;;;5023669;28;20050;-75
2023/02/18 08:41:08;;;;;;;35.80;18.88;;;7.90;99.90;;;;;;5039300;28;20049;-75
2023/02/18 08:43:33;;;;;;;37.38;18.45;;;7.90;99.90;;;;;;5019161;28;20425;-75
2023/02/18 08:45:59;;;;;;;40.58;19.70;;;8.00;99.90;;;;;;5008190;28;20053;-76
2023/02/18 08:48:25;;;;;;;27.90;14.43;;;8.10;99.90;;;;;;5033196;28;20070;-75
2023/02/18 08:50:51;;;;;;;36.03;16.80;;;8.20;99.90;;;;;;5013654;28;20809;-75
2023/02/18 08:53:16;;;;;;;30.75;17.27;;;8.40;99.90;;;;;;5011530;28;20042;-75
2023/02/18 08:55:42;;;;;;;26.23;13.30;;;8.50;99.90;;;;;;5011369;28;20109;-75
2023/02/18 08:58:08;;;;;;;24.50;12.40;;;8.60;99.90;;;;;;5005694;28;20085;-76
2023/02/18 09:00:34;;;;;;;25.17;11.98;;;8.60;99.90;;;;;;5039378;28;20095;-76
2023/02/18 09:03:00;;;;;;;22.50;11.55;;;8.80;99.90;;;;;;5004029;28;20472;-76
2023/02/18 09:05:25;;;;;;;22.17;11.57;;;8.80;99.90;;;;;;5021106;28;20049;-76
2023/02/18 09:07:51;;;;;;;23.48;10.45;;;8.90;99.90;;;;;;5006814;28;20054;-75
2023/02/18 09:10:17;;;;;;;19.52;10.30;;;9.00;99.90;;;;;;5026197;28;20114;-77
2023/02/18 09:12:42;;;;;;;16.08;8.43;;;9.00;99.90;;;;;;5005329;28;20124;-76
2023/02/18 09:15:08;;;;;;;17.30;9.10;;;9.10;99.90;;;;;;5005142;28;20042;-75
2023/02/18 09:17:34;;;;;;;16.38;8.52;;;9.20;99.90;;;;;;5025483;28;20489;-76
2023/02/18 09:20:00;;;;;;;14.02;7.25;;;9.20;99.90;;;;;;5020911;28;20466;-76
2023/02/18 09:22:26;;;;;;;12.20;6.55;;;9.30;99.90;;;;;;5021420;28;20107;-76
2023/02/18 09:24:52;;;;;;;11.88;6.53;;;9.40;99.90;;;;;;4998080;28;20370;-76
2023/02/18 09:27:17;;;;;;;10.45;5.72;;;9.40;99.90;;;;;;5028536;28;20045;-75
2023/02/18 09:29:43;;;;;;;9.52;4.68;;;9.50;99.90;;;;;;5019337;28;20072;-76
2023/02/18 09:32:11;;;;;;;7.35;4.10;;;9.50;99.90;;;;;;5016656;28;20060;-75
2023/02/18 09:34:37;;;;;;;5.30;2.58;;;9.60;99.90;;;;;;5011487;28;20099;-76
2023/02/18 09:37:02;;;;;;;5.13;2.40;;;9.70;99.90;;;;;;5015618;28;20417;-75
2023/02/18 09:39:28;;;;;;;4.30;2.35;;;9.70;99.90;;;;;;5027033;28;20111;-76
2023/02/18 09:41:56;;;;;;;4.13;1.40;;;9.80;99.90;;;;;;5038631;28;20098;-76
2023/02/18 09:44:27;;;;;;;2.90;1.20;;;9.90;99.90;;;;;;5008543;28;20130;-76
2023/02/18 09:46:54;;;;;;;2.15;1.00;;;10.00;99.90;;;;;;5026856;28;20053;-76
2023/02/18 09:49:22;;;;;;;1.30;0.90;;;10.10;99.90;;;;;;5005332;28;20050;-75
2023/02/18 09:51:48;;;;;;;1.25;0.82;;;10.10;99.90;;;;;;4995867;28;20050;-76
2023/02/18 09:54:15;;;;;;;1.42;0.90;;;10.30;99.90;;;;;;5019222;28;20038;-76
2023/02/18 09:56:42;;;;;;;1.45;0.98;;;10.30;99.90;;;;;;5026911;28;20045;-76
2023/02/18 09:59:12;;;;;;;2.22;0.70;;;10.30;99.90;;;;;;5030724;28;20049;-76
2023/02/18 10:01:39;;;;;;;1.23;0.73;;;10.40;99.90;;;;;;4999729;28;21032;-76
2023/02/18 10:04:23;;;;;;;0.95;0.60;;;10.40;99.90;;;;;;5005832;28;20042;-74
2023/02/18 10:06:52;;;;;;;1.10;0.63;;;10.70;99.90;;;;;;5019453;28;20132;-76
2023/02/18 10:09:22;;;;;;;1.00;0.60;;;10.80;99.90;;;;;;5019722;28;20060;-74
2023/02/18 10:12:10;;;;;;;0.80;0.60;;;10.90;99.90;;;;;;5023843;28;20087;-75
2023/02/18 10:14:36;;;;;;;0.68;0.50;;;10.80;99.90;;;;;;5002432;28;20184;-75
2023/02/18 10:17:02;;;;;;;1.05;0.50;;;10.80;99.90;;;;;;4997016;28;20140;-75
2023/02/18 10:19:34;;;;;;;0.75;0.50;;;10.80;99.90;;;;;;5031566;28;20064;-75
2023/02/18 10:22:01;;;;;;;0.80;0.50;;;10.90;99.90;;;;;;5031144;28;20049;-75
2023/02/18 10:24:41;;;;;;;0.80;0.50;;;10.80;99.90;;;;;;5003336;28;20129;-75
2023/02/18 10:27:07;;;;;;;0.43;0.40;;;10.80;99.90;;;;;;5012495;28;20050;-74
2023/02/18 10:29:33;;;;;;;1.02;0.57;;;10.70;99.90;;;;;;5032136;28;20150;-75
2023/02/18 10:32:22;;;;;;;0.90;0.60;;;10.80;99.90;;;;;;5005119;28;20463;-75
2023/02/18 10:34:52;;;;;;;1.15;0.70;;;10.90;99.90;;;;;;4998793;28;20075;-75
2023/02/18 10:37:26;;;;;;;0.73;0.70;;;10.90;99.90;;;;;;5031469;28;20041;-75
2023/02/18 10:39:55;;;;;;;1.23;0.88;;;11.00;99.90;;;;;;5039469;28;20056;-76
2023/02/18 10:42:33;;;;;;;2.50;1.50;;;11.00;99.90;;;;;;5020797;28;20049;-76
2023/02/18 10:45:21;;;;;;;2.42;1.30;;;10.90;99.90;;;;;;5006867;28;20056;-75
2023/02/18 10:48:08;;;;;;;2.40;1.60;;;11.00;99.90;;;;;;5016350;28;20072;-77
2023/02/18 10:50:37;;;;;;;4.40;1.92;;;11.00;99.90;;;;;;5026253;28;20053;-76
2023/02/18 10:53:16;;;;;;;3.03;2.05;;;10.90;99.90;;;;;;5001776;28;20774;-76
2023/02/18 10:55:44;;;;;;;4.10;2.63;;;10.90;99.90;;;;;;5027024;28;20046;-76
2023/02/18 10:58:32;;;;;;;2.07;1.67;;;10.90;99.90;;;;;;5013408;28;20467;-76
2023/02/18 11:01:07;;;;;;;2.78;1.60;;;10.90;99.90;;;;;;4980757;28;20295;-76
2023/02/18 11:03:44;;;;;;;1.58;1.20;;;10.90;99.90;;;;;;5012447;28;20041;-76
2023/02/18 11:06:20;;;;;;;2.90;1.73;;;11.00;99.90;;;;;;5016892;28;20418;-76
2023/02/18 11:08:47;;;;;;;3.05;1.80;;;11.00;99.90;;;;;;5031270;28;20045;-75
2023/02/18 11:11:25;;;;;;;2.40;1.60;;;11.00;99.90;;;;;;5004421;28;20053;-77
2023/02/18 11:13:56;;;;;;;3.35;1.70;;;11.00;99.90;;;;;;5017010;28;20044;-76
2023/02/18 11:16:22;;;;;;;2.08;1.55;;;10.90;99.90;;;;;;5002144;28;20073;-76
2023/02/18 11:18:48;;;;;;;2.38;1.67;;;10.90;99.90;;;;;;4968341;28;20601;-76
2023/02/18 11:21:44;;;;;;;2.60;1.55;;;10.90;99.90;;;;;;4998004;28;20336;-76
2023/02/18 11:24:14;;;;;;;1.90;1.50;;;10.90;99.90;;;;;;5020229;28;20512;-76
2023/02/18 11:26:40;;;;;;;4.10;1.70;;;10.90;99.90;;;;;;5042258;28;20046;-76
2023/02/18 11:29:22;;;;;;;2.47;1.50;;;10.80;99.90;;;;;;5015141;28;20125;-76
2023/02/18 11:31:50;;;;;;;3.30;2.20;;;10.80;99.90;;;;;;5020350;28;20559;-76
2023/02/18 11:34:28;;;;;;;2.40;1.80;;;10.80;99.90;;;;;;5001589;28;20117;-76
2023/02/18 11:36:55;;;;;;;3.40;2.10;;;10.70;99.90;;;;;;5015608;28;20045;-74
2023/02/18 11:39:42;;;;;;;2.47;1.83;;;10.60;99.90;;;;;;5021669;28;20074;-76
2023/02/18 11:42:07;;;;;;;3.28;2.67;;;10.60;99.90;;;;;;5025913;28;20049;-76
2023/02/18 11:44:39;;;;;;;4.47;2.50;;;10.60;99.90;;;;;;5010974;28;20064;-76
2023/02/18 11:47:21;;;;;;;2.97;2.65;;;10.50;99.90;;;;;;5014837;28;20042;-76
2023/02/18 11:50:08;;;;;;;4.57;2.70;;;10.40;99.90;;;;;;5025392;28;20164;-75
2023/02/18 11:52:39;;;;;;;3.40;2.70;;;10.40;99.90;;;;;;5027419;28;20469;-76
2023/02/18 11:55:19;;;;;;;5.30;2.72;;;10.40;99.90;;;;;;5019661;28;20587;-76
2023/02/18 11:57:54;;;;;;;4.20;3.03;;;10.40;99.90;;;;;;5025844;28;20037;-76
2023/02/18 12:00:22;;;;;;;4.43;3.08;;;10.40;99.90;;;;;;5028235;28;20052;-76
2023/02/18 12:02:50;;;;;;;3.17;2.58;;;10.40;99.90;;;;;;5029062;28;20111;-76
2023/02/18 12:05:24;;;;;;;4.40;2.88;;;10.40;99.90;;;;;;5024311;28;20062;-76
2023/02/18 12:08:10;;;;;;;3.47;2.70;;;10.40;99.90;;;;;;5006609;28;20088;-76
2023/02/18 12:10:46;;;;;;;3.45;2.38;;;10.40;99.90;;;;;;5025829;28;20065;-76
2023/02/18 12:13:38;;;;;;;3.42;2.55;;;10.40;99.90;;;;;;5006731;28;20042;-76
2023/02/18 12:16:38;;;;;;;4.07;2.33;;;10.30;99.90;;;;;;5033294;28;20045;-77
2023/02/18 12:19:16;;;;;;;7.28;2.80;;;10.20;99.90;;;;;;5043635;28;20049;-76
2023/02/18 12:22:00;;;;;;;4.63;2.10;;;10.20;99.90;;;;;;5023226;28;20072;-76
2023/02/18 12:24:51;;;;;;;3.35;2.20;;;10.20;99.90;;;;;;5027455;28;20160;-76
2023/02/18 12:27:27;;;;;;;3.72;2.40;;;10.20;99.90;;;;;;5030277;28;20042;-76
2023/02/18 12:30:00;;;;;;;6.68;4.10;;;10.10;99.90;;;;;;5021581;28;20052;-76
2023/02/18 12:33:00;;;;;;;5.00;2.83;;;10.10;99.90;;;;;;5022076;28;20053;-76
2023/02/18 12:35:48;;;;;;;7.70;3.97;;;10.10;99.90;;;;;;5014939;28;20046;-76
2023/02/18 12:38:23;;;;;;;4.80;2.53;;;10.10;99.90;;;;;;5001842;28;20374;-76
2023/02/18 12:41:10;;;;;;;4.70;2.55;;;10.10;99.90;;;;;;5023359;28;20045;-76
2023/02/18 12:43:57;;;;;;;3.30;2.47;;;10.10;99.90;;;;;;5018469;28;20771;-76
2023/02/18 12:46:32;;;;;;;4.47;2.42;;;10.10;99.90;;;;;;5034722;28;20109;-76
2023/02/18 12:49:42;;;;;;;3.45;1.98;;;10.10;99.90;;;;;;5033275;28;20049;-76
2023/02/18 12:52:11;;;;;;;2.35;1.90;;;10.10;99.90;;;;;;5018680;28;20041;-76
2023/02/18 12:54:49;;;;;;;2.08;1.60;;;10.10;99.90;;;;;;5001461;28;20042;-76
2023/02/18 12:57:42;;;;;;;3.03;1.90;;;10.10;99.90;;;;;;5020476;28;20037;-74
2023/02/18 13:00:11;;;;;;;2.67;1.80;;;10.20;99.90;;;;;;4986905;28;20049;-75
2023/02/18 13:03:07;;;;;;;2.40;1.38;;;10.40;99.90;;;;;;5042744;28;20080;-75
2023/02/18 13:06:02;;;;;;;3.33;1.50;;;10.40;99.90;;;;;;5024761;28;20051;-76